sensor_id;sensor_type;location;lat;lon;timestamp;P1;durP1;ratioP1;P2;durP2;ratioP2
5129;SDS011;2583;50.946;6.954;2022-09-21T00:03:39;5.90;;;4.30;;
5129;SDS011;2583;50.946;6.954;2022-09-21T00:06:10;8.00;;;4.33;;
5129;SDS011;2583;50.946;6.954;2022-09-21T00:08:42;7.80;;;5.10;;
5129;SDS011;2583;50.946;6.954;2022-09-21T00:11:11;5.30;;;4.17;;
5129;SDS011;2583;50.946;6.954;2022-09-21T00:13:39;8.27;;;4.70;;
5129;SDS011;2583;50.946;6.954;2022-09-21T00:16:07;7.40;;;4.50;;
5129;SDS011;2583;50.946;6.954;2022-09-21T00:18:36;7.37;;;4.30;;
5129;SDS011;2583;50.946;6.954;2022-09-21T00:21:06;7.10;;;4.53;;
5129;SDS011;2583;50.946;6.954;2022-09-21T00:23:36;8.70;;;4.90;;
5129;SDS011;2583;50.946;6.954;2022-09-21T00:26:08;6.23;;;4.70;;
5129;SDS011;2583;50.946;6.954;2022-09-21T00:28:43;5.83;;;4.20;;
5129;SDS011;2583;50.946;6.954;2022-09-21T00:31:12;11.20;;;4.40;;
5129;SDS011;2583;50.946;6.954;2022-09-21T00:33:41;5.53;;;4.40;;
5129;SDS011;2583;50.946;6.954;2022-09-21T00:36:13;9.93;;;4.60;;
5129;SDS011;2583;50.946;6.954;2022-09-21T00:38:42;5.73;;;4.47;;
5129;SDS011;2583;50.946;6.954;2022-09-21T00:41:10;5.27;;;4.43;;
5129;SDS011;2583;50.946;6.954;2022-09-21T00:43:45;6.77;;;5.00;;
5129;SDS011;2583;50.946;6.954;2022-09-21T00:46:14;10.03;;;4.70;;
5129;SDS011;2583;50.946;6.954;2022-09-21T00:48:52;5.40;;;4.87;;
5129;SDS011;2583;50.946;6.954;2022-09-21T00:51:19;9.37;;;4.20;;
5129;SDS011;2583;50.946;6.954;2022-09-21T00:53:46;7.20;;;4.97;;
5129;SDS011;2583;50.946;6.954;2022-09-21T00:56:19;12.13;;;4.73;;
5129;SDS011;2583;50.946;6.954;2022-09-21T00:58:46;10.70;;;4.90;;
5129;SDS011;2583;50.946;6.954;2022-09-21T01:01:15;7.80;;;4.67;;
5129;SDS011;2583;50.946;6.954;2022-09-21T01:03:47;10.53;;;4.47;;
5129;SDS011;2583;50.946;6.954;2022-09-21T01:06:16;5.30;;;4.30;;
5129;SDS011;2583;50.946;6.954;2022-09-21T01:08:45;7.53;;;4.33;;
5129;SDS011;2583;50.946;6.954;2022-09-21T01:16:42;9.20;;;4.50;;
5129;SDS011;2583;50.946;6.954;2022-09-21T01:30:11;4.80;;;4.40;;
5129;SDS011;2583;50.946;6.954;2022-09-21T01:32:45;10.90;;;5.30;;
5129;SDS011;2583;50.946;6.954;2022-09-21T01:35:19;7.27;;;4.90;;
5129;SDS011;2583;50.946;6.954;2022-09-21T01:37:54;6.27;;;4.43;;
5129;SDS011;2583;50.946;6.954;2022-09-21T01:40:44;5.50;;;4.47;;
5129;SDS011;2583;50.946;6.954;2022-09-21T01:43:22;11.60;;;4.40;;
5129;SDS011;2583;50.946;6.954;2022-09-21T01:45:53;5.70;;;4.23;;
5129;SDS011;2583;50.946;6.954;2022-09-21T01:48:27;5.50;;;4.53;;
5129;SDS011;2583;50.946;6.954;2022-09-21T01:51:00;6.60;;;4.40;;
5129;SDS011;2583;50.946;6.954;2022-09-21T01:54:04;6.40;;;4.90;;
5129;SDS011;2583;50.946;6.954;2022-09-21T01:56:52;5.27;;;4.77;;
5129;SDS011;2583;50.946;6.954;2022-09-21T01:59:33;7.40;;;4.40;;
5129;SDS011;2583;50.946;6.954;2022-09-21T02:02:17;7.63;;;4.60;;
5129;SDS011;2583;50.946;6.954;2022-09-21T02:05:04;4.50;;;4.10;;
5129;SDS011;2583;50.946;6.954;2022-09-21T02:07:32;6.37;;;4.60;;
5129;SDS011;2583;50.946;6.954;2022-09-21T02:10:01;8.70;;;4.60;;
5129;SDS011;2583;50.946;6.954;2022-09-21T02:12:30;5.47;;;4.93;;
5129;SDS011;2583;50.946;6.954;2022-09-21T02:14:58;7.83;;;5.43;;
5129;SDS011;2583;50.946;6.954;2022-09-21T02:20:14;8.90;;;5.20;;
5129;SDS011;2583;50.946;6.954;2022-09-21T02:31:00;9.23;;;4.77;;
5129;SDS011;2583;50.946;6.954;2022-09-21T02:34:03;8.83;;;5.03;;
5129;SDS011;2583;50.946;6.954;2022-09-21T02:36:38;6.77;;;4.97;;
5129;SDS011;2583;50.946;6.954;2022-09-21T02:39:31;6.10;;;4.60;;
5129;SDS011;2583;50.946;6.954;2022-09-21T02:42:08;6.30;;;4.57;;
5129;SDS011;2583;50.946;6.954;2022-09-21T02:45:06;7.50;;;5.40;;
5129;SDS011;2583;50.946;6.954;2022-09-21T02:47:45;7.47;;;4.80;;
5129;SDS011;2583;50.946;6.954;2022-09-21T02:53:24;5.37;;;4.90;;
5129;SDS011;2583;50.946;6.954;2022-09-21T02:55:54;9.07;;;5.27;;
5129;SDS011;2583;50.946;6.954;2022-09-21T02:58:24;8.37;;;5.80;;
5129;SDS011;2583;50.946;6.954;2022-09-21T03:00:53;6.00;;;5.40;;
5129;SDS011;2583;50.946;6.954;2022-09-21T03:03:23;6.87;;;6.20;;
5129;SDS011;2583;50.946;6.954;2022-09-21T03:05:52;6.70;;;5.20;;
5129;SDS011;2583;50.946;6.954;2022-09-21T03:08:20;6.43;;;5.73;;
5129;SDS011;2583;50.946;6.954;2022-09-21T03:10:47;10.50;;;5.83;;
5129;SDS011;2583;50.946;6.954;2022-09-21T03:13:15;8.00;;;5.90;;
5129;SDS011;2583;50.946;6.954;2022-09-21T03:15:43;8.40;;;6.07;;
5129;SDS011;2583;50.946;6.954;2022-09-21T03:18:11;7.53;;;5.57;;
5129;SDS011;2583;50.946;6.954;2022-09-21T03:20:38;6.67;;;5.90;;
5129;SDS011;2583;50.946;6.954;2022-09-21T03:23:10;9.97;;;6.40;;
5129;SDS011;2583;50.946;6.954;2022-09-21T03:25:37;9.10;;;5.93;;
5129;SDS011;2583;50.946;6.954;2022-09-21T03:28:04;8.00;;;7.17;;
5129;SDS011;2583;50.946;6.954;2022-09-21T03:30:31;7.10;;;6.60;;
5129;SDS011;2583;50.946;6.954;2022-09-21T03:32:58;9.13;;;7.00;;
5129;SDS011;2583;50.946;6.954;2022-09-21T03:35:25;17.47;;;7.30;;
5129;SDS011;2583;50.946;6.954;2022-09-21T03:37:52;7.13;;;6.37;;
5129;SDS011;2583;50.946;6.954;2022-09-21T03:40:20;7.77;;;7.00;;
5129;SDS011;2583;50.946;6.954;2022-09-21T03:42:47;7.67;;;6.97;;
5129;SDS011;2583;50.946;6.954;2022-09-21T03:45:14;8.80;;;6.90;;
5129;SDS011;2583;50.946;6.954;2022-09-21T03:47:41;9.70;;;6.87;;
5129;SDS011;2583;50.946;6.954;2022-09-21T03:50:08;7.20;;;6.50;;
5129;SDS011;2583;50.946;6.954;2022-09-21T03:52:35;8.40;;;7.57;;
5129;SDS011;2583;50.946;6.954;2022-09-21T03:55:05;7.87;;;7.07;;
5129;SDS011;2583;50.946;6.954;2022-09-21T03:57:33;7.70;;;7.00;;
5129;SDS011;2583;50.946;6.954;2022-09-21T04:00:02;12.63;;;6.80;;
5129;SDS011;2583;50.946;6.954;2022-09-21T04:02:30;7.57;;;6.73;;
5129;SDS011;2583;50.946;6.954;2022-09-21T04:04:58;8.03;;;7.23;;
5129;SDS011;2583;50.946;6.954;2022-09-21T04:07:25;11.67;;;7.10;;
5129;SDS011;2583;50.946;6.954;2022-09-21T04:09:52;9.20;;;7.83;;
5129;SDS011;2583;50.946;6.954;2022-09-21T04:12:22;9.00;;;7.60;;
5129;SDS011;2583;50.946;6.954;2022-09-21T04:14:48;8.53;;;7.70;;
5129;SDS011;2583;50.946;6.954;2022-09-21T04:17:15;7.70;;;7.07;;
5129;SDS011;2583;50.946;6.954;2022-09-21T04:19:42;11.23;;;8.90;;
5129;SDS011;2583;50.946;6.954;2022-09-21T04:22:10;8.63;;;7.83;;
5129;SDS011;2583;50.946;6.954;2022-09-21T04:24:37;13.23;;;8.10;;
5129;SDS011;2583;50.946;6.954;2022-09-21T04:27:07;8.53;;;7.80;;
5129;SDS011;2583;50.946;6.954;2022-09-21T04:29:34;10.00;;;7.67;;
5129;SDS011;2583;50.946;6.954;2022-09-21T04:32:01;9.40;;;8.80;;
5129;SDS011;2583;50.946;6.954;2022-09-21T04:34:28;19.60;;;8.50;;
5129;SDS011;2583;50.946;6.954;2022-09-21T04:36:56;8.50;;;7.70;;
5129;SDS011;2583;50.946;6.954;2022-09-21T04:39:24;11.73;;;8.23;;
5129;SDS011;2583;50.946;6.954;2022-09-21T04:41:51;11.60;;;8.33;;
5129;SDS011;2583;50.946;6.954;2022-09-21T04:44:18;8.03;;;7.43;;
5129;SDS011;2583;50.946;6.954;2022-09-21T04:46:44;9.53;;;8.63;;
5129;SDS011;2583;50.946;6.954;2022-09-21T04:49:11;9.93;;;9.07;;
5129;SDS011;2583;50.946;6.954;2022-09-21T04:51:38;8.60;;;8.00;;
5129;SDS011;2583;50.946;6.954;2022-09-21T04:54:05;8.77;;;7.97;;
5129;SDS011;2583;50.946;6.954;2022-09-21T04:56:32;9.83;;;8.77;;
5129;SDS011;2583;50.946;6.954;2022-09-21T04:58:59;8.63;;;7.73;;
5129;SDS011;2583;50.946;6.954;2022-09-21T05:01:26;8.97;;;8.20;;
5129;SDS011;2583;50.946;6.954;2022-09-21T05:03:53;9.33;;;8.23;;
5129;SDS011;2583;50.946;6.954;2022-09-21T05:06:20;9.33;;;7.93;;
5129;SDS011;2583;50.946;6.954;2022-09-21T05:08:46;14.17;;;8.63;;
5129;SDS011;2583;50.946;6.954;2022-09-21T05:11:32;8.67;;;7.97;;
5129;SDS011;2583;50.946;6.954;2022-09-21T05:13:58;8.27;;;7.47;;
5129;SDS011;2583;50.946;6.954;2022-09-21T05:16:25;9.30;;;7.10;;
5129;SDS011;2583;50.946;6.954;2022-09-21T05:18:52;8.53;;;7.80;;
5129;SDS011;2583;50.946;6.954;2022-09-21T05:21:22;8.80;;;7.93;;
5129;SDS011;2583;50.946;6.954;2022-09-21T05:23:48;9.07;;;8.17;;
5129;SDS011;2583;50.946;6.954;2022-09-21T05:26:15;8.40;;;7.77;;
5129;SDS011;2583;50.946;6.954;2022-09-21T05:28:42;8.23;;;7.53;;
5129;SDS011;2583;50.946;6.954;2022-09-21T05:31:19;8.43;;;7.70;;
5129;SDS011;2583;50.946;6.954;2022-09-21T05:33:53;12.27;;;9.83;;
5129;SDS011;2583;50.946;6.954;2022-09-21T05:39:45;16.50;;;9.47;;
5129;SDS011;2583;50.946;6.954;2022-09-21T05:42:12;19.27;;;9.00;;
5129;SDS011;2583;50.946;6.954;2022-09-21T05:44:39;13.63;;;9.20;;
5129;SDS011;2583;50.946;6.954;2022-09-21T05:47:11;11.17;;;10.07;;
5129;SDS011;2583;50.946;6.954;2022-09-21T05:52:34;11.30;;;10.03;;
5129;SDS011;2583;50.946;6.954;2022-09-21T06:00:20;11.00;;;9.63;;
5129;SDS011;2583;50.946;6.954;2022-09-21T06:02:49;13.30;;;10.37;;
5129;SDS011;2583;50.946;6.954;2022-09-21T06:05:42;11.20;;;10.10;;
5129;SDS011;2583;50.946;6.954;2022-09-21T06:08:09;19.27;;;10.50;;
5129;SDS011;2583;50.946;6.954;2022-09-21T06:10:36;17.33;;;10.63;;
5129;SDS011;2583;50.946;6.954;2022-09-21T06:13:03;14.13;;;10.53;;
5129;SDS011;2583;50.946;6.954;2022-09-21T06:15:29;14.10;;;10.77;;
5129;SDS011;2583;50.946;6.954;2022-09-21T06:17:57;17.93;;;11.00;;
5129;SDS011;2583;50.946;6.954;2022-09-21T06:20:24;19.93;;;10.70;;
5129;SDS011;2583;50.946;6.954;2022-09-21T06:22:51;19.40;;;11.30;;
5129;SDS011;2583;50.946;6.954;2022-09-21T06:25:18;13.00;;;10.87;;
5129;SDS011;2583;50.946;6.954;2022-09-21T06:27:45;18.40;;;9.43;;
5129;SDS011;2583;50.946;6.954;2022-09-21T06:30:12;13.50;;;9.30;;
5129;SDS011;2583;50.946;6.954;2022-09-21T06:32:39;11.20;;;9.60;;
5129;SDS011;2583;50.946;6.954;2022-09-21T06:35:05;10.57;;;9.50;;
5129;SDS011;2583;50.946;6.954;2022-09-21T06:37:32;11.30;;;9.70;;
5129;SDS011;2583;50.946;6.954;2022-09-21T06:39:59;13.17;;;10.07;;
5129;SDS011;2583;50.946;6.954;2022-09-21T06:42:26;11.27;;;9.77;;
5129;SDS011;2583;50.946;6.954;2022-09-21T06:44:53;16.80;;;10.43;;
5129;SDS011;2583;50.946;6.954;2022-09-21T06:47:20;11.33;;;10.20;;
5129;SDS011;2583;50.946;6.954;2022-09-21T06:49:47;13.50;;;10.17;;
5129;SDS011;2583;50.946;6.954;2022-09-21T06:52:14;11.00;;;9.07;;
5129;SDS011;2583;50.946;6.954;2022-09-21T06:54:40;18.73;;;8.40;;
5129;SDS011;2583;50.946;6.954;2022-09-21T06:57:07;16.33;;;10.00;;
5129;SDS011;2583;50.946;6.954;2022-09-21T06:59:34;19.67;;;12.30;;
5129;SDS011;2583;50.946;6.954;2022-09-21T07:02:01;24.10;;;13.47;;
5129;SDS011;2583;50.946;6.954;2022-09-21T07:04:29;23.07;;;13.00;;
5129;SDS011;2583;50.946;6.954;2022-09-21T07:06:57;18.20;;;11.80;;
5129;SDS011;2583;50.946;6.954;2022-09-21T07:09:28;29.67;;;12.10;;
5129;SDS011;2583;50.946;6.954;2022-09-21T07:12:15;14.33;;;11.63;;
5129;SDS011;2583;50.946;6.954;2022-09-21T07:14:42;17.23;;;11.50;;
5129;SDS011;2583;50.946;6.954;2022-09-21T07:17:10;25.30;;;10.97;;
5129;SDS011;2583;50.946;6.954;2022-09-21T07:19:41;16.57;;;12.10;;
5129;SDS011;2583;50.946;6.954;2022-09-21T07:22:07;17.83;;;12.13;;
5129;SDS011;2583;50.946;6.954;2022-09-21T07:24:34;16.17;;;12.40;;
5129;SDS011;2583;50.946;6.954;2022-09-21T07:27:01;14.30;;;12.53;;
5129;SDS011;2583;50.946;6.954;2022-09-21T07:29:27;14.10;;;12.20;;
5129;SDS011;2583;50.946;6.954;2022-09-21T07:31:55;13.17;;;11.60;;
5129;SDS011;2583;50.946;6.954;2022-09-21T07:34:22;17.10;;;11.93;;
5129;SDS011;2583;50.946;6.954;2022-09-21T07:36:48;14.10;;;11.80;;
5129;SDS011;2583;50.946;6.954;2022-09-21T07:39:15;13.57;;;12.13;;
5129;SDS011;2583;50.946;6.954;2022-09-21T07:41:42;19.80;;;12.67;;
5129;SDS011;2583;50.946;6.954;2022-09-21T07:44:08;18.20;;;12.37;;
5129;SDS011;2583;50.946;6.954;2022-09-21T07:46:35;14.93;;;12.90;;
5129;SDS011;2583;50.946;6.954;2022-09-21T07:49:06;16.73;;;14.17;;
5129;SDS011;2583;50.946;6.954;2022-09-21T07:51:33;20.23;;;13.80;;
5129;SDS011;2583;50.946;6.954;2022-09-21T07:53:59;18.67;;;14.50;;
5129;SDS011;2583;50.946;6.954;2022-09-21T07:56:26;20.77;;;14.70;;
5129;SDS011;2583;50.946;6.954;2022-09-21T07:58:53;17.93;;;14.67;;
5129;SDS011;2583;50.946;6.954;2022-09-21T08:01:32;20.50;;;14.63;;
5129;SDS011;2583;50.946;6.954;2022-09-21T08:04:01;15.63;;;13.07;;
5129;SDS011;2583;50.946;6.954;2022-09-21T08:06:29;17.53;;;13.07;;
5129;SDS011;2583;50.946;6.954;2022-09-21T08:08:58;23.37;;;13.43;;
5129;SDS011;2583;50.946;6.954;2022-09-21T08:11:26;16.50;;;14.13;;
5129;SDS011;2583;50.946;6.954;2022-09-21T08:13:56;17.33;;;14.80;;
5129;SDS011;2583;50.946;6.954;2022-09-21T08:16:24;18.43;;;13.27;;
5129;SDS011;2583;50.946;6.954;2022-09-21T08:18:52;19.77;;;14.27;;
5129;SDS011;2583;50.946;6.954;2022-09-21T08:21:18;27.77;;;14.70;;
5129;SDS011;2583;50.946;6.954;2022-09-21T08:23:46;18.03;;;12.97;;
5129;SDS011;2583;50.946;6.954;2022-09-21T08:26:15;18.07;;;12.03;;
5129;SDS011;2583;50.946;6.954;2022-09-21T08:28:45;18.10;;;12.33;;
5129;SDS011;2583;50.946;6.954;2022-09-21T08:31:17;15.40;;;13.00;;
5129;SDS011;2583;50.946;6.954;2022-09-21T08:33:45;14.13;;;12.37;;
5129;SDS011;2583;50.946;6.954;2022-09-21T08:36:13;17.77;;;12.37;;
5129;SDS011;2583;50.946;6.954;2022-09-21T08:38:40;13.20;;;11.87;;
5129;SDS011;2583;50.946;6.954;2022-09-21T08:41:21;12.40;;;10.67;;
5129;SDS011;2583;50.946;6.954;2022-09-21T08:44:20;12.20;;;10.60;;
5129;SDS011;2583;50.946;6.954;2022-09-21T08:47:01;10.57;;;9.57;;
5129;SDS011;2583;50.946;6.954;2022-09-21T08:49:43;12.70;;;10.20;;
5129;SDS011;2583;50.946;6.954;2022-09-21T08:52:17;13.77;;;12.03;;
5129;SDS011;2583;50.946;6.954;2022-09-21T08:57:31;10.47;;;8.90;;
5129;SDS011;2583;50.946;6.954;2022-09-21T08:59:59;12.33;;;10.60;;
5129;SDS011;2583;50.946;6.954;2022-09-21T09:02:37;11.73;;;10.53;;
5129;SDS011;2583;50.946;6.954;2022-09-21T09:08:10;10.43;;;9.00;;
5129;SDS011;2583;50.946;6.954;2022-09-21T09:21:44;17.43;;;11.20;;
5129;SDS011;2583;50.946;6.954;2022-09-21T09:24:14;17.10;;;9.33;;
5129;SDS011;2583;50.946;6.954;2022-09-21T09:32:00;15.23;;;10.97;;
5129;SDS011;2583;50.946;6.954;2022-09-21T09:34:37;10.80;;;9.50;;
5129;SDS011;2583;50.946;6.954;2022-09-21T09:37:12;11.70;;;9.73;;
5129;SDS011;2583;50.946;6.954;2022-09-21T09:39:44;10.00;;;9.03;;
5129;SDS011;2583;50.946;6.954;2022-09-21T09:53:16;8.73;;;7.90;;
5129;SDS011;2583;50.946;6.954;2022-09-21T09:55:46;15.17;;;7.27;;
5129;SDS011;2583;50.946;6.954;2022-09-21T09:58:22;6.23;;;5.73;;
5129;SDS011;2583;50.946;6.954;2022-09-21T10:01:08;6.70;;;5.40;;
5129;SDS011;2583;50.946;6.954;2022-09-21T10:04:08;6.50;;;5.10;;
5129;SDS011;2583;50.946;6.954;2022-09-21T10:06:37;11.83;;;5.30;;
5129;SDS011;2583;50.946;6.954;2022-09-21T10:11:52;7.70;;;3.93;;
5129;SDS011;2583;50.946;6.954;2022-09-21T10:14:43;4.83;;;4.43;;
5129;SDS011;2583;50.946;6.954;2022-09-21T10:17:15;4.80;;;4.40;;
5129;SDS011;2583;50.946;6.954;2022-09-21T10:19:43;5.80;;;5.20;;
5129;SDS011;2583;50.946;6.954;2022-09-21T10:22:15;5.70;;;5.20;;
5129;SDS011;2583;50.946;6.954;2022-09-21T10:24:52;11.97;;;4.93;;
5129;SDS011;2583;50.946;6.954;2022-09-21T10:27:24;10.67;;;5.23;;
5129;SDS011;2583;50.946;6.954;2022-09-21T10:29:59;5.23;;;4.73;;
5129;SDS011;2583;50.946;6.954;2022-09-21T10:32:27;8.03;;;5.20;;
5129;SDS011;2583;50.946;6.954;2022-09-21T10:35:11;8.30;;;5.40;;
5129;SDS011;2583;50.946;6.954;2022-09-21T10:37:40;4.33;;;3.87;;
5129;SDS011;2583;50.946;6.954;2022-09-21T10:42:46;8.03;;;4.60;;
5129;SDS011;2583;50.946;6.954;2022-09-21T10:45:18;5.33;;;3.77;;
5129;SDS011;2583;50.946;6.954;2022-09-21T10:50:26;7.07;;;3.90;;
5129;SDS011;2583;50.946;6.954;2022-09-21T10:55:39;4.53;;;2.40;;
5129;SDS011;2583;50.946;6.954;2022-09-21T10:58:35;12.20;;;5.80;;
5129;SDS011;2583;50.946;6.954;2022-09-21T11:01:09;6.07;;;3.50;;
5129;SDS011;2583;50.946;6.954;2022-09-21T11:03:50;4.17;;;2.10;;
5129;SDS011;2583;50.946;6.954;2022-09-21T11:06:29;12.30;;;6.03;;
5129;SDS011;2583;50.946;6.954;2022-09-21T11:11:56;3.00;;;2.63;;
5129;SDS011;2583;50.946;6.954;2022-09-21T11:20:07;4.33;;;2.63;;
5129;SDS011;2583;50.946;6.954;2022-09-21T11:22:42;3.70;;;2.37;;
5129;SDS011;2583;50.946;6.954;2022-09-21T11:25:31;4.13;;;2.43;;
5129;SDS011;2583;50.946;6.954;2022-09-21T11:28:25;3.00;;;2.33;;
5129;SDS011;2583;50.946;6.954;2022-09-21T11:36:54;5.00;;;1.83;;
5129;SDS011;2583;50.946;6.954;2022-09-21T11:45:02;6.33;;;3.20;;
5129;SDS011;2583;50.946;6.954;2022-09-21T11:47:58;3.50;;;2.60;;
5129;SDS011;2583;50.946;6.954;2022-09-21T11:50:43;3.40;;;1.97;;
5129;SDS011;2583;50.946;6.954;2022-09-21T12:04:33;1.83;;;1.30;;
5129;SDS011;2583;50.946;6.954;2022-09-21T12:15:52;4.10;;;1.37;;
5129;SDS011;2583;50.946;6.954;2022-09-21T12:18:33;2.63;;;1.60;;
5129;SDS011;2583;50.946;6.954;2022-09-21T12:26:37;3.10;;;1.23;;
5129;SDS011;2583;50.946;6.954;2022-09-21T12:29:16;2.20;;;1.03;;
5129;SDS011;2583;50.946;6.954;2022-09-21T12:31:57;3.27;;;1.33;;
5129;SDS011;2583;50.946;6.954;2022-09-21T12:34:34;3.50;;;1.27;;
5129;SDS011;2583;50.946;6.954;2022-09-21T12:37:09;2.93;;;1.90;;
5129;SDS011;2583;50.946;6.954;2022-09-21T12:42:27;3.00;;;1.20;;
5129;SDS011;2583;50.946;6.954;2022-09-21T12:45:00;2.10;;;1.03;;
5129;SDS011;2583;50.946;6.954;2022-09-21T12:53:01;2.30;;;1.20;;
5129;SDS011;2583;50.946;6.954;2022-09-21T12:55:39;1.67;;;1.20;;
5129;SDS011;2583;50.946;6.954;2022-09-21T13:00:59;5.10;;;1.03;;
5129;SDS011;2583;50.946;6.954;2022-09-21T13:04:32;2.20;;;1.10;;
5129;SDS011;2583;50.946;6.954;2022-09-21T13:06:43;4.20;;;1.30;;
5129;SDS011;2583;50.946;6.954;2022-09-21T13:09:37;5.77;;;1.37;;
5129;SDS011;2583;50.946;6.954;2022-09-21T13:12:18;2.77;;;2.40;;
5129;SDS011;2583;50.946;6.954;2022-09-21T13:14:51;3.43;;;1.30;;
5129;SDS011;2583;50.946;6.954;2022-09-21T13:17:28;2.53;;;1.27;;
5129;SDS011;2583;50.946;6.954;2022-09-21T13:22:32;2.63;;;1.07;;
5129;SDS011;2583;50.946;6.954;2022-09-21T13:49:47;1.87;;;1.40;;
5129;SDS011;2583;50.946;6.954;2022-09-21T13:52:00;2.00;;;1.63;;
5129;SDS011;2583;50.946;6.954;2022-09-21T13:57:01;1.50;;;0.90;;
5129;SDS011;2583;50.946;6.954;2022-09-21T13:59:41;2.13;;;0.83;;
5129;SDS011;2583;50.946;6.954;2022-09-21T14:08:00;3.43;;;0.80;;
5129;SDS011;2583;50.946;6.954;2022-09-21T14:10:34;1.30;;;0.67;;
5129;SDS011;2583;50.946;6.954;2022-09-21T14:13:05;1.20;;;0.67;;
5129;SDS011;2583;50.946;6.954;2022-09-21T14:15:48;2.20;;;1.40;;
5129;SDS011;2583;50.946;6.954;2022-09-21T14:18:18;3.03;;;2.73;;
5129;SDS011;2583;50.946;6.954;2022-09-21T14:23:36;5.33;;;3.60;;
5129;SDS011;2583;50.946;6.954;2022-09-21T14:26:18;4.20;;;1.50;;
5129;SDS011;2583;50.946;6.954;2022-09-21T14:28:58;7.73;;;6.30;;
5129;SDS011;2583;50.946;6.954;2022-09-21T14:31:41;4.90;;;3.30;;
5129;SDS011;2583;50.946;6.954;2022-09-21T14:34:14;3.57;;;2.17;;
5129;SDS011;2583;50.946;6.954;2022-09-21T14:36:49;3.00;;;1.40;;
5129;SDS011;2583;50.946;6.954;2022-09-21T14:39:30;5.20;;;1.10;;
5129;SDS011;2583;50.946;6.954;2022-09-21T14:42:05;3.87;;;1.67;;
5129;SDS011;2583;50.946;6.954;2022-09-21T14:44:38;2.97;;;2.10;;
5129;SDS011;2583;50.946;6.954;2022-09-21T14:50:05;6.10;;;4.00;;
5129;SDS011;2583;50.946;6.954;2022-09-21T14:57:46;3.73;;;1.83;;
5129;SDS011;2583;50.946;6.954;2022-09-21T15:00:42;3.03;;;1.43;;
5129;SDS011;2583;50.946;6.954;2022-09-21T15:12:54;11.80;;;7.83;;
5129;SDS011;2583;50.946;6.954;2022-09-21T15:15:31;5.70;;;4.17;;
5129;SDS011;2583;50.946;6.954;2022-09-21T15:18:20;4.83;;;1.90;;
5129;SDS011;2583;50.946;6.954;2022-09-21T15:20:57;4.13;;;2.23;;
5129;SDS011;2583;50.946;6.954;2022-09-21T15:23:30;4.13;;;1.20;;
5129;SDS011;2583;50.946;6.954;2022-09-21T15:26:02;1.80;;;0.77;;
5129;SDS011;2583;50.946;6.954;2022-09-21T15:28:42;3.30;;;1.33;;
5129;SDS011;2583;50.946;6.954;2022-09-21T15:31:35;4.10;;;1.20;;
5129;SDS011;2583;50.946;6.954;2022-09-21T15:34:04;3.50;;;3.03;;
5129;SDS011;2583;50.946;6.954;2022-09-21T15:36:36;4.63;;;1.40;;
5129;SDS011;2583;50.946;6.954;2022-09-21T15:39:04;3.40;;;1.73;;
5129;SDS011;2583;50.946;6.954;2022-09-21T15:41:36;3.13;;;1.87;;
5129;SDS011;2583;50.946;6.954;2022-09-21T15:44:14;2.17;;;1.23;;
5129;SDS011;2583;50.946;6.954;2022-09-21T15:46:52;2.30;;;1.23;;
5129;SDS011;2583;50.946;6.954;2022-09-21T15:49:23;2.60;;;0.90;;
5129;SDS011;2583;50.946;6.954;2022-09-21T15:51:52;3.97;;;1.40;;
5129;SDS011;2583;50.946;6.954;2022-09-21T15:56:59;4.30;;;1.57;;
5129;SDS011;2583;50.946;6.954;2022-09-21T15:59:33;4.00;;;1.30;;
5129;SDS011;2583;50.946;6.954;2022-09-21T16:02:10;2.10;;;1.30;;
5129;SDS011;2583;50.946;6.954;2022-09-21T16:04:46;2.70;;;1.50;;
5129;SDS011;2583;50.946;6.954;2022-09-21T16:07:35;2.70;;;1.77;;
5129;SDS011;2583;50.946;6.954;2022-09-21T16:10:35;1.80;;;1.40;;
5129;SDS011;2583;50.946;6.954;2022-09-21T16:12:59;2.63;;;1.00;;
5129;SDS011;2583;50.946;6.954;2022-09-21T16:16:02;1.67;;;1.07;;
5129;SDS011;2583;50.946;6.954;2022-09-21T16:18:47;3.50;;;1.20;;
5129;SDS011;2583;50.946;6.954;2022-09-21T16:21:25;3.47;;;1.63;;
5129;SDS011;2583;50.946;6.954;2022-09-21T16:24:07;1.90;;;1.50;;
5129;SDS011;2583;50.946;6.954;2022-09-21T16:26:58;5.00;;;2.10;;
5129;SDS011;2583;50.946;6.954;2022-09-21T16:29:35;4.73;;;2.33;;
5129;SDS011;2583;50.946;6.954;2022-09-21T16:32:18;2.33;;;1.23;;
5129;SDS011;2583;50.946;6.954;2022-09-21T16:35:23;3.80;;;2.50;;
5129;SDS011;2583;50.946;6.954;2022-09-21T16:37:57;6.93;;;2.83;;
5129;SDS011;2583;50.946;6.954;2022-09-21T16:40:24;3.87;;;1.77;;
5129;SDS011;2583;50.946;6.954;2022-09-21T16:42:52;2.70;;;2.00;;
5129;SDS011;2583;50.946;6.954;2022-09-21T16:45:23;3.27;;;2.70;;
5129;SDS011;2583;50.946;6.954;2022-09-21T16:47:54;3.23;;;2.60;;
5129;SDS011;2583;50.946;6.954;2022-09-21T16:50:22;6.23;;;4.50;;
5129;SDS011;2583;50.946;6.954;2022-09-21T16:52:49;12.80;;;10.53;;
5129;SDS011;2583;50.946;6.954;2022-09-21T16:55:20;14.43;;;10.53;;
5129;SDS011;2583;50.946;6.954;2022-09-21T16:57:53;19.63;;;13.40;;
5129;SDS011;2583;50.946;6.954;2022-09-21T17:00:20;22.17;;;10.70;;
5129;SDS011;2583;50.946;6.954;2022-09-21T17:02:47;3.20;;;2.90;;
5129;SDS011;2583;50.946;6.954;2022-09-21T17:05:14;10.33;;;5.80;;
5129;SDS011;2583;50.946;6.954;2022-09-21T17:07:55;7.90;;;6.13;;
5129;SDS011;2583;50.946;6.954;2022-09-21T17:10:24;7.97;;;5.53;;
5129;SDS011;2583;50.946;6.954;2022-09-21T17:12:54;5.77;;;4.93;;
5129;SDS011;2583;50.946;6.954;2022-09-21T17:15:22;6.40;;;5.27;;
5129;SDS011;2583;50.946;6.954;2022-09-21T17:17:50;6.40;;;4.97;;
5129;SDS011;2583;50.946;6.954;2022-09-21T17:20:18;5.37;;;3.60;;
5129;SDS011;2583;50.946;6.954;2022-09-21T17:22:51;4.50;;;3.20;;
5129;SDS011;2583;50.946;6.954;2022-09-21T17:25:18;5.57;;;4.10;;
5129;SDS011;2583;50.946;6.954;2022-09-21T17:27:45;5.00;;;4.50;;
5129;SDS011;2583;50.946;6.954;2022-09-21T17:30:12;8.20;;;6.50;;
5129;SDS011;2583;50.946;6.954;2022-09-21T17:32:40;22.30;;;16.37;;
5129;SDS011;2583;50.946;6.954;2022-09-21T17:37:57;17.17;;;13.20;;
5129;SDS011;2583;50.946;6.954;2022-09-21T17:40:24;9.73;;;8.60;;
5129;SDS011;2583;50.946;6.954;2022-09-21T17:42:53;6.50;;;5.53;;
5129;SDS011;2583;50.946;6.954;2022-09-21T17:45:40;5.80;;;5.17;;
5129;SDS011;2583;50.946;6.954;2022-09-21T17:48:28;6.20;;;5.40;;
5129;SDS011;2583;50.946;6.954;2022-09-21T17:50:59;16.17;;;8.30;;
5129;SDS011;2583;50.946;6.954;2022-09-21T17:53:26;8.03;;;6.03;;
5129;SDS011;2583;50.946;6.954;2022-09-21T17:58:49;20.00;;;12.97;;
5129;SDS011;2583;50.946;6.954;2022-09-21T18:03:59;5.03;;;4.53;;
5129;SDS011;2583;50.946;6.954;2022-09-21T18:06:26;8.80;;;5.00;;
5129;SDS011;2583;50.946;6.954;2022-09-21T18:08:54;7.60;;;4.70;;
5129;SDS011;2583;50.946;6.954;2022-09-21T18:22:27;6.60;;;4.60;;
5129;SDS011;2583;50.946;6.954;2022-09-21T18:24:56;6.30;;;4.37;;
5129;SDS011;2583;50.946;6.954;2022-09-21T18:27:23;11.10;;;4.80;;
5129;SDS011;2583;50.946;6.954;2022-09-21T18:29:50;7.00;;;5.37;;
5129;SDS011;2583;50.946;6.954;2022-09-21T18:32:33;5.83;;;4.80;;
5129;SDS011;2583;50.946;6.954;2022-09-21T18:35:28;5.67;;;4.50;;
5129;SDS011;2583;50.946;6.954;2022-09-21T18:38:30;7.77;;;5.53;;
5129;SDS011;2583;50.946;6.954;2022-09-21T18:41:14;6.23;;;5.23;;
5129;SDS011;2583;50.946;6.954;2022-09-21T18:44:14;13.83;;;10.30;;
5129;SDS011;2583;50.946;6.954;2022-09-21T18:47:13;39.70;;;24.53;;
5129;SDS011;2583;50.946;6.954;2022-09-21T18:49:53;25.90;;;16.30;;
5129;SDS011;2583;50.946;6.954;2022-09-21T18:52:34;13.23;;;9.80;;
5129;SDS011;2583;50.946;6.954;2022-09-21T18:55:21;12.33;;;9.13;;
5129;SDS011;2583;50.946;6.954;2022-09-21T18:57:53;23.10;;;12.40;;
5129;SDS011;2583;50.946;6.954;2022-09-21T19:00:20;17.40;;;11.57;;
5129;SDS011;2583;50.946;6.954;2022-09-21T19:02:48;11.23;;;8.73;;
5129;SDS011;2583;50.946;6.954;2022-09-21T19:05:36;14.87;;;11.30;;
5129;SDS011;2583;50.946;6.954;2022-09-21T19:10:53;49.87;;;27.37;;
5129;SDS011;2583;50.946;6.954;2022-09-21T19:16:12;21.60;;;13.43;;
5129;SDS011;2583;50.946;6.954;2022-09-21T19:21:53;7.53;;;6.00;;
5129;SDS011;2583;50.946;6.954;2022-09-21T19:24:45;10.20;;;5.23;;
5129;SDS011;2583;50.946;6.954;2022-09-21T19:27:45;7.10;;;4.87;;
5129;SDS011;2583;50.946;6.954;2022-09-21T19:30:25;6.83;;;4.93;;
5129;SDS011;2583;50.946;6.954;2022-09-21T19:32:53;5.40;;;3.30;;
5129;SDS011;2583;50.946;6.954;2022-09-21T19:35:32;5.90;;;2.97;;